createdAt,value
2023-06-17T00:01:01.666Z,98640.75
2023-06-17T00:04:04.278Z,98637.47
2023-06-17T00:07:06.581Z,98638.75
2023-06-17T00:10:09.704Z,98640.50
2023-06-17T00:13:11.505Z,98634.72
2023-06-17T00:16:14.016Z,98628.56
2023-06-17T00:19:18.407Z,98627.16
2023-06-17T00:22:20.215Z,98616.31
2023-06-17T00:25:22.332Z,98624.91
2023-06-17T00:28:24.142Z,98626.19
2023-06-17T00:31:27.547Z,98621.81
2023-06-17T00:34:29.557Z,98627.94
2023-06-17T00:37:32.973Z,98627.56
2023-06-17T00:40:34.704Z,98618.94
2023-06-17T00:43:36.632Z,98623.31
2023-06-17T00:46:41.065Z,98627.06
2023-06-17T00:49:45.739Z,98623.97
2023-06-17T00:52:53.312Z,98625.03
2023-06-17T00:55:55.375Z,98619.22
2023-06-17T00:58:58.819Z,98629.84
2023-06-17T01:02:00.771Z,98625.13
2023-06-17T01:05:03.040Z,98628.28
2023-06-17T01:08:35.108Z,98626.25
2023-06-17T01:11:40.019Z,98631.09
2023-06-17T01:14:43.535Z,98617.06
2023-06-17T01:17:47.653Z,98622.59
2023-06-17T01:20:55.638Z,98628.59
2023-06-17T01:24:03.510Z,98626.72
2023-06-17T01:27:05.514Z,98624.00
2023-06-17T01:30:09.305Z,98618.81
2023-06-17T01:33:14.228Z,98620.09
2023-06-17T01:36:23.645Z,98614.69
2023-06-17T01:39:27.031Z,98615.13
2023-06-17T01:42:32.836Z,98622.22
2023-06-17T01:45:35.743Z,98627.41
2023-06-17T01:48:39.864Z,98625.97
2023-06-17T01:51:41.920Z,98627.63
2023-06-17T01:54:43.847Z,98626.34
2023-06-17T01:57:45.804Z,98639.06
2023-06-17T02:00:47.726Z,98630.94
2023-06-17T02:03:49.762Z,98634.84
2023-06-17T02:06:52.962Z,98628.16
2023-06-17T02:09:56.142Z,98634.75
2023-06-17T02:12:58.054Z,98638.53
2023-06-17T02:15:59.962Z,98632.88
2023-06-17T02:19:03.527Z,98632.19
2023-06-17T02:22:05.712Z,98634.06
2023-06-17T02:25:08.079Z,98639.03
2023-06-17T02:28:11.603Z,98634.56
2023-06-17T02:31:13.523Z,98637.47
2023-06-17T02:34:15.571Z,98637.81
2023-06-17T02:37:17.763Z,98643.16
2023-06-17T02:40:21.428Z,98636.81
2023-06-17T02:43:26.302Z,98639.06
2023-06-17T02:46:28.567Z,98641.44
2023-06-17T02:49:31.248Z,98638.03
2023-06-17T02:52:35.538Z,98635.22
2023-06-17T02:55:37.826Z,98636.75
2023-06-17T02:58:48.884Z,98637.38
2023-06-17T03:01:51.058Z,98631.94
2023-06-17T03:04:55.191Z,98632.06
2023-06-17T03:07:58.913Z,98625.69
2023-06-17T03:11:01.322Z,98633.53
2023-06-17T03:14:04.977Z,98626.44
2023-06-17T03:17:11.877Z,98626.09
2023-06-17T03:20:14.595Z,98634.94
2023-06-17T03:23:16.896Z,98635.38
2023-06-17T03:29:26.506Z,98637.47
2023-06-17T03:32:28.610Z,98639.94
2023-06-17T03:35:30.641Z,98640.81
2023-06-17T03:38:32.864Z,98644.53
2023-06-17T03:41:34.996Z,98638.31
2023-06-17T03:44:37.614Z,98648.50
2023-06-17T03:47:39.645Z,98651.66
2023-06-17T03:50:41.638Z,98651.03
2023-06-17T03:53:43.661Z,98654.91
2023-06-17T03:56:46.077Z,98652.31
2023-06-17T03:59:48.064Z,98649.94
2023-06-17T04:02:51.227Z,98652.97
2023-06-17T04:06:03.079Z,98649.44
2023-06-17T04:09:06.465Z,98650.28
2023-06-17T04:12:10.061Z,98650.50
2023-06-17T04:15:11.896Z,98655.00
2023-06-17T04:18:14.505Z,98653.81
2023-06-17T04:21:16.686Z,98655.81
2023-06-17T04:24:18.921Z,98665.22
2023-06-17T04:27:21.620Z,98656.03
2023-06-17T04:30:26.432Z,98655.63
2023-06-17T04:33:31.942Z,98653.50
2023-06-17T04:36:35.780Z,98647.50
2023-06-17T04:39:38.148Z,98648.06
2023-06-17T04:42:46.211Z,98647.03
2023-06-17T04:45:48.563Z,98650.31
2023-06-17T04:48:51.698Z,98653.59
2023-06-17T04:51:53.849Z,98652.47
2023-06-17T04:54:56.656Z,98651.38
2023-06-17T04:57:58.822Z,98646.91
2023-06-17T05:01:27.084Z,98651.72
2023-06-17T05:04:29.194Z,98650.56
2023-06-17T05:07:31.360Z,98652.56
2023-06-17T05:10:33.221Z,98651.41
2023-06-17T05:13:35.403Z,98641.16
2023-06-17T05:16:38.980Z,98647.44
2023-06-17T05:19:40.874Z,98646.91
2023-06-17T05:22:42.865Z,98648.25
2023-06-17T05:25:44.901Z,98652.97
2023-06-17T05:28:46.845Z,98653.41
2023-06-17T05:31:48.836Z,98648.31
2023-06-17T05:34:51.864Z,98646.38
2023-06-17T05:37:53.748Z,98644.09
2023-06-17T05:40:55.680Z,98647.53
2023-06-17T05:43:58.500Z,98650.19
2023-06-17T05:47:00.866Z,98654.81
2023-06-17T05:50:02.872Z,98652.34
2023-06-17T05:53:05.477Z,98650.25
2023-06-17T05:56:11.117Z,98652.78
2023-06-17T05:59:13.208Z,98651.13
2023-06-17T06:02:17.268Z,98639.69
2023-06-17T06:05:19.494Z,98644.91
2023-06-17T06:08:21.488Z,98652.13
2023-06-17T06:11:23.391Z,98641.34
2023-06-17T06:14:25.355Z,98640.63
2023-06-17T06:17:29.372Z,98642.06
2023-06-17T06:20:31.360Z,98648.28
2023-06-17T06:23:33.144Z,98637.66
2023-06-17T06:26:36.196Z,98643.91
2023-06-17T06:29:38.736Z,98632.97
2023-06-17T06:32:40.740Z,98645.06
2023-06-17T06:35:43.647Z,98636.88
2023-06-17T06:38:51.669Z,98632.88
2023-06-17T06:41:54.723Z,98636.56
2023-06-17T06:45:20.887Z,98637.81
2023-06-17T06:48:22.745Z,98632.56
2023-06-17T06:51:25.715Z,98638.44
2023-06-17T06:54:27.794Z,98638.75
2023-06-17T06:57:30.261Z,98644.78
2023-06-17T07:00:32.233Z,98639.53
2023-06-17T07:03:34.473Z,98633.31
2023-06-17T07:06:36.521Z,98646.88
2023-06-17T07:09:42.544Z,98645.94
2023-06-17T07:12:44.319Z,98642.53
2023-06-17T07:15:48.024Z,98646.69
2023-06-17T07:18:50.462Z,98645.75
2023-06-17T07:21:52.427Z,98651.16
2023-06-17T07:24:54.397Z,98644.13
2023-06-17T07:28:03.860Z,98649.41
2023-06-17T07:31:06.635Z,98650.88
2023-06-17T07:34:08.735Z,98643.97
2023-06-17T07:37:10.655Z,98646.31
2023-06-17T07:40:17.504Z,98639.34
2023-06-17T07:43:19.590Z,98645.78
2023-06-17T07:46:21.695Z,98640.47
2023-06-17T07:49:23.644Z,98642.63
2023-06-17T07:52:25.852Z,98653.38
2023-06-17T07:55:30.283Z,98643.41
2023-06-17T07:58:32.444Z,98636.66
2023-06-17T08:01:34.807Z,98646.59
2023-06-17T08:04:37.081Z,98645.97
2023-06-17T08:07:38.916Z,98639.09
2023-06-17T08:10:40.639Z,98639.53
2023-06-17T08:13:42.539Z,98645.06
2023-06-17T08:16:45.326Z,98647.69
2023-06-17T08:19:47.453Z,98652.72
2023-06-17T08:22:49.395Z,98647.88
2023-06-17T08:25:51.373Z,98657.09
2023-06-17T08:28:53.276Z,98661.72
2023-06-17T08:31:55.642Z,98666.19
2023-06-17T08:34:57.508Z,98647.25
2023-06-17T08:37:59.368Z,98657.69
2023-06-17T08:41:01.240Z,98657.09
2023-06-17T08:44:05.631Z,98666.94
2023-06-17T08:47:07.983Z,98657.47
2023-06-17T08:50:11.229Z,98656.34
2023-06-17T08:53:14.452Z,98652.13
2023-06-17T08:56:16.368Z,98656.56
2023-06-17T08:59:18.269Z,98656.19
2023-06-17T09:02:22.350Z,98657.50
2023-06-17T09:05:24.282Z,98658.50
2023-06-17T09:08:26.467Z,98656.53
2023-06-17T09:11:30.697Z,98656.53
2023-06-17T09:14:33.361Z,98655.09
2023-06-17T09:17:39.340Z,98655.50
2023-06-17T09:20:41.297Z,98660.13
2023-06-17T09:23:43.315Z,98664.16
2023-06-17T09:26:46.588Z,98661.19
2023-06-17T09:29:49.508Z,98660.72
2023-06-17T09:32:53.331Z,98658.38
2023-06-17T09:36:05.826Z,98663.16
2023-06-17T09:39:10.082Z,98662.41
2023-06-17T09:42:12.815Z,98659.13
2023-06-17T09:45:24.944Z,98652.31
2023-06-17T09:48:36.814Z,98655.06
2023-06-17T09:51:40.187Z,98649.22
2023-06-17T09:54:43.877Z,98650.50
2023-06-17T09:57:46.203Z,98648.38
2023-06-17T10:00:48.441Z,98647.88
2023-06-17T10:03:50.675Z,98651.00
2023-06-17T10:06:54.239Z,98656.47
2023-06-17T10:09:56.324Z,98649.31
2023-06-17T10:13:04.929Z,98646.78
2023-06-17T10:16:10.747Z,98651.16
2023-06-17T10:19:18.102Z,98646.09
2023-06-17T10:22:22.971Z,98644.09
2023-06-17T10:25:26.057Z,98653.72
2023-06-17T10:28:47.071Z,98643.47
2023-06-17T10:31:49.123Z,98644.78
2023-06-17T10:35:20.722Z,98649.03
2023-06-17T10:38:30.301Z,98645.66
2023-06-17T10:41:45.818Z,98655.31
2023-06-17T10:44:51.268Z,98652.47
2023-06-17T10:48:16.522Z,98642.88
2023-06-17T10:51:19.555Z,98639.69
2023-06-17T10:54:31.989Z,98634.81
2023-06-17T10:57:37.925Z,98625.38
2023-06-17T11:00:39.912Z,98621.44
2023-06-17T11:03:42.238Z,98628.13
2023-06-17T11:06:46.953Z,98621.28
2023-06-17T11:09:48.753Z,98629.31
2023-06-17T11:12:51.745Z,98626.66
2023-06-17T11:15:56.883Z,98623.03
2023-06-17T11:19:00.346Z,98621.59
2023-06-17T11:22:05.282Z,98621.09
2023-06-17T11:25:10.444Z,98611.28
2023-06-17T11:28:12.853Z,98608.78
2023-06-17T11:31:14.814Z,98600.31
2023-06-17T11:34:17.871Z,98602.84
2023-06-17T11:37:20.054Z,98613.31
2023-06-17T11:40:23.934Z,98607.75
2023-06-17T11:43:29.436Z,98610.06
2023-06-17T11:46:31.521Z,98603.03
2023-06-17T11:49:34.052Z,98602.97
2023-06-17T11:52:36.149Z,98593.03
2023-06-17T11:55:38.093Z,98592.22
2023-06-17T11:58:41.931Z,98589.75
2023-06-17T12:01:43.918Z,98592.34
2023-06-17T12:04:46.614Z,98587.91
2023-06-17T12:07:48.498Z,98594.03
2023-06-17T12:10:50.360Z,98586.28
2023-06-17T12:13:52.694Z,98576.41
2023-06-17T12:16:54.638Z,98580.91
2023-06-17T12:20:03.483Z,98584.25
2023-06-17T12:23:05.422Z,98583.72
2023-06-17T12:26:07.400Z,98580.88
2023-06-17T12:29:24.294Z,98584.75
2023-06-17T12:32:29.127Z,98588.06
2023-06-17T12:35:31.039Z,98583.47
2023-06-17T12:38:33.080Z,98570.59
2023-06-17T12:41:36.718Z,98575.47
2023-06-17T12:44:38.620Z,98574.31
2023-06-17T12:47:40.769Z,98561.78
2023-06-17T12:50:42.670Z,98564.03
2023-06-17T12:53:44.516Z,98568.34
2023-06-17T12:56:46.439Z,98566.31
2023-06-17T12:59:48.224Z,98563.69
2023-06-17T13:02:50.129Z,98548.13
2023-06-17T13:05:52.724Z,98552.63
2023-06-17T13:08:55.434Z,98562.81
2023-06-17T13:11:57.455Z,98547.59
2023-06-17T13:14:59.312Z,98558.34
2023-06-17T13:18:01.864Z,98552.94
2023-06-17T13:21:03.898Z,98555.06
2023-06-17T13:24:06.020Z,98548.06
2023-06-17T13:27:07.970Z,98556.38
2023-06-17T13:30:10.590Z,98548.72
2023-06-17T13:33:12.863Z,98545.28
2023-06-17T13:36:14.932Z,98543.28
2023-06-17T13:39:16.996Z,98543.47
2023-06-17T13:42:18.839Z,98538.09
2023-06-17T13:45:20.860Z,98548.53
2023-06-17T13:48:23.033Z,98542.66
2023-06-17T13:51:24.953Z,98537.13
2023-06-17T13:54:28.290Z,98533.22
2023-06-17T13:57:30.291Z,98532.53
2023-06-17T14:00:32.254Z,98531.72
2023-06-17T14:03:34.369Z,98535.31
2023-06-17T14:06:37.204Z,98541.66
2023-06-17T14:09:39.067Z,98546.25
2023-06-17T14:12:41.151Z,98538.59
2023-06-17T14:15:43.110Z,98536.28
2023-06-17T14:18:44.890Z,98539.25
2023-06-17T14:21:59.890Z,98535.97
2023-06-17T14:25:01.762Z,98531.72
2023-06-17T14:28:05.089Z,98543.44
2023-06-17T14:31:06.857Z,98535.59
2023-06-17T14:34:08.692Z,98541.03
2023-06-17T14:37:10.570Z,98546.38
2023-06-17T14:40:13.813Z,98543.94
2023-06-17T14:43:15.740Z,98544.75
2023-06-17T14:46:17.754Z,98540.19
2023-06-17T14:49:19.764Z,98538.38
2023-06-17T14:52:22.024Z,98532.53
2023-06-17T14:55:23.908Z,98538.88
2023-06-17T14:58:25.847Z,98535.00
2023-06-17T15:01:30.886Z,98537.94
2023-06-17T15:04:32.792Z,98537.47
2023-06-17T15:07:34.650Z,98534.00
2023-06-17T15:10:36.511Z,98543.00
2023-06-17T15:13:38.496Z,98526.38
2023-06-17T15:16:40.794Z,98539.09
2023-06-17T15:19:43.191Z,98543.00
2023-06-17T15:22:45.254Z,98542.03
2023-06-17T15:25:47.272Z,98539.91
2023-06-17T15:28:49.098Z,98545.28
2023-06-17T15:31:50.892Z,98550.84
2023-06-17T15:34:53.189Z,98551.13
2023-06-17T15:37:55.095Z,98544.25
2023-06-17T15:40:56.933Z,98554.16
2023-06-17T15:44:00.481Z,98561.84
2023-06-17T15:47:02.390Z,98549.13
2023-06-17T15:50:04.397Z,98549.59
2023-06-17T15:53:06.356Z,98564.00
2023-06-17T15:56:08.200Z,98562.25
2023-06-17T15:59:10.047Z,98564.78
2023-06-17T16:02:12.104Z,98564.88
2023-06-17T16:05:14.542Z,98571.41
2023-06-17T16:08:16.452Z,98565.00
2023-06-17T16:11:19.332Z,98570.09
2023-06-17T16:14:21.267Z,98571.66
2023-06-17T16:17:23.168Z,98570.94
2023-06-17T16:20:25.041Z,98575.53
2023-06-17T16:23:26.982Z,98569.91
2023-06-17T16:26:29.883Z,98575.31
2023-06-17T16:29:32.409Z,98582.63
2023-06-17T16:32:34.265Z,98580.88
2023-06-17T16:35:36.230Z,98579.44
2023-06-17T16:38:38.099Z,98573.78
2023-06-17T16:41:43.133Z,98578.97
2023-06-17T16:44:45.048Z,98576.69
2023-06-17T16:47:46.913Z,98579.81
2023-06-17T16:50:48.730Z,98579.38
2023-06-17T16:53:50.579Z,98578.25
2023-06-17T16:56:52.433Z,98583.34
2023-06-17T16:59:54.179Z,98589.38
2023-06-17T17:02:56.735Z,98591.94
2023-06-17T17:05:58.660Z,98583.81
2023-06-17T17:09:00.426Z,98588.69
2023-06-17T17:12:05.888Z,98591.06
2023-06-17T17:15:08.482Z,98592.88
2023-06-17T17:18:10.506Z,98599.91
2023-06-17T17:21:12.912Z,98610.53
2023-06-17T17:24:14.854Z,98605.47
2023-06-17T17:27:16.757Z,98600.69
2023-06-17T17:30:18.688Z,98607.16
2023-06-17T17:33:23.681Z,98609.72
2023-06-17T17:36:26.080Z,98621.91
2023-06-17T17:39:29.138Z,98618.69
2023-06-17T17:42:30.937Z,98617.13
2023-06-17T17:45:32.867Z,98630.94
2023-06-17T17:48:34.632Z,98620.31
2023-06-17T17:51:36.499Z,98620.34
2023-06-17T17:54:46.441Z,98632.16
2023-06-17T17:57:55.449Z,98633.84
2023-06-17T18:01:02.328Z,98637.44
2023-06-17T18:04:04.597Z,98644.28
2023-06-17T18:07:06.479Z,98654.16
2023-06-17T18:10:08.454Z,98653.59
2023-06-17T18:13:10.323Z,98659.06
2023-06-17T18:16:12.244Z,98664.50
2023-06-17T18:19:17.994Z,98661.47
2023-06-17T18:22:20.105Z,98664.47
2023-06-17T18:25:22.113Z,98667.16
2023-06-17T18:28:23.965Z,98672.31
2023-06-17T18:31:26.997Z,98674.69
2023-06-17T18:34:28.787Z,98668.63
2023-06-17T18:37:30.779Z,98675.69
2023-06-17T18:40:35.493Z,98676.44
2023-06-17T18:43:37.351Z,98675.31
2023-06-17T18:46:39.451Z,98674.97
2023-06-17T18:49:41.936Z,98675.47
2023-06-17T18:52:46.689Z,98668.56
2023-06-17T18:55:48.504Z,98676.41
2023-06-17T18:58:50.467Z,98671.47
2023-06-17T19:01:52.516Z,98673.84
2023-06-17T19:04:54.596Z,98678.72
2023-06-17T19:07:56.743Z,98681.41
2023-06-17T19:10:58.541Z,98680.53
2023-06-17T19:14:03.369Z,98686.47
2023-06-17T19:17:05.329Z,98681.75
2023-06-17T19:20:11.428Z,98686.59
2023-06-17T19:23:13.350Z,98681.84
2023-06-17T19:26:15.291Z,98703.03
2023-06-17T19:29:17.173Z,98694.53
2023-06-17T19:32:19.024Z,98689.03
2023-06-17T19:35:21.326Z,98692.53
2023-06-17T19:38:23.276Z,98691.84
2023-06-17T19:41:25.108Z,98694.75
2023-06-17T19:44:33.530Z,98698.97
2023-06-17T19:47:35.598Z,98693.19
2023-06-17T19:50:37.474Z,98690.91
2023-06-17T19:53:39.412Z,98691.41
2023-06-17T19:56:41.621Z,98686.97
2023-06-17T19:59:43.519Z,98696.66
2023-06-17T20:02:45.527Z,98696.56
2023-06-17T20:05:47.588Z,98702.00
2023-06-17T20:08:49.640Z,98699.84
2023-06-17T20:11:51.865Z,98697.22
2023-06-17T20:14:53.736Z,98697.22
2023-06-17T20:17:55.594Z,98701.69
2023-06-17T20:20:57.420Z,98700.72
2023-06-17T20:23:59.317Z,98706.00
2023-06-17T20:27:01.276Z,98710.81
2023-06-17T20:30:04.690Z,98708.34
2023-06-17T20:33:06.618Z,98708.53
2023-06-17T20:36:08.573Z,98711.44
2023-06-17T20:39:10.502Z,98713.50
2023-06-17T20:42:12.484Z,98716.13
2023-06-17T20:45:14.497Z,98719.59
2023-06-17T20:48:17.871Z,98719.75
2023-06-17T20:51:19.833Z,98717.78
2023-06-17T20:54:21.701Z,98721.47
2023-06-17T20:57:23.628Z,98722.19
2023-06-17T21:00:25.573Z,98720.19
2023-06-17T21:03:27.498Z,98721.50
2023-06-17T21:06:29.486Z,98729.34
2023-06-17T21:09:31.483Z,98724.88
2023-06-17T21:12:34.630Z,98723.22
2023-06-17T21:15:36.545Z,98723.47
2023-06-17T21:18:38.500Z,98730.56
2023-06-17T21:21:40.439Z,98723.22
2023-06-17T21:24:42.220Z,98729.06
2023-06-17T21:27:44.130Z,98735.97
2023-06-17T21:30:46.105Z,98734.69
2023-06-17T21:33:50.175Z,98734.09
2023-06-17T21:36:52.088Z,98725.84
2023-06-17T21:39:53.963Z,98730.59
2023-06-17T21:42:56.544Z,98733.13
2023-06-17T21:45:58.508Z,98726.03
2023-06-17T21:49:00.424Z,98737.63
2023-06-17T21:52:02.312Z,98735.38
2023-06-17T21:55:04.532Z,98725.69
2023-06-17T21:58:06.360Z,98730.28
2023-06-17T22:01:08.273Z,98735.84
2023-06-17T22:04:10.153Z,98739.53
2023-06-17T22:07:11.984Z,98744.50
2023-06-17T22:10:14.271Z,98746.97
2023-06-17T22:13:16.131Z,98741.19
2023-06-17T22:16:18.106Z,98746.75
2023-06-17T22:19:20.017Z,98752.06
2023-06-17T22:22:21.905Z,98743.78
2023-06-17T22:25:23.740Z,98744.75
2023-06-17T22:28:25.772Z,98745.91
2023-06-17T22:31:27.566Z,98761.88
2023-06-17T22:34:29.452Z,98752.78
2023-06-17T22:37:31.548Z,98749.94
2023-06-17T22:40:33.389Z,98756.56
2023-06-17T22:43:35.236Z,98747.94
2023-06-17T22:46:37.194Z,98748.88
2023-06-17T22:49:39.096Z,98753.38
2023-06-17T22:52:40.910Z,98749.47
2023-06-17T22:55:42.924Z,98744.75
2023-06-17T22:58:45.866Z,98753.81
2023-06-17T23:01:47.699Z,98751.22
2023-06-17T23:04:50.210Z,98747.44
2023-06-17T23:07:52.098Z,98754.22
2023-06-17T23:10:53.972Z,98745.25
2023-06-17T23:13:55.887Z,98750.34
2023-06-17T23:16:58.136Z,98753.50
2023-06-17T23:20:01.456Z,98747.59
2023-06-17T23:23:05.061Z,98747.59
2023-06-17T23:26:06.893Z,98756.06
2023-06-17T23:29:12.791Z,98754.03
2023-06-17T23:32:14.641Z,98752.38
2023-06-17T23:35:16.588Z,98742.31
2023-06-17T23:38:18.502Z,98739.63
2023-06-17T23:41:20.428Z,98741.97
2023-06-17T23:44:23.629Z,98743.97
2023-06-17T23:47:25.509Z,98751.75
2023-06-17T23:50:27.322Z,98751.38
2023-06-17T23:53:29.099Z,98736.03
2023-06-17T23:56:32.352Z,98747.94
2023-06-17T23:59:35.287Z,98749.22
